AirNav   Air Wisconsin Up To $57,000 Bonus
 
 993 users online  

I93 Breckinridge County Airport
Hardinsburg, Kentucky, USA

GOING TO HARDINSBURG?


FAA INFORMATION EFFECTIVE 07 NOVEMBER 2019

Location

FAA Identifier: I93
Lat/Long: 37-47-05.3000N 086-26-28.6000W
37-47.088333N 086-26.476667W
37.7848056,-86.4412778
(estimated)
Elevation: 732.1 ft. / 223.1 m (surveyed)
Variation: 04W (2020)
From city: 1 mile E of HARDINSBURG, KY
Time zone: UTC -6 (UTC -5 during Daylight Saving Time)
Zip code: 40143

Airport Operations

Airport use: Open to the public
Activation date: 04/1968
Control tower: no
ARTCC: INDIANAPOLIS CENTER
FSS: LOUISVILLE FLIGHT SERVICE STATION
NOTAMs facility: LOU (NOTAM-D service available)
Attendance: UNATNDD
Wind indicator: lighted
Segmented circle: no
Lights: ACTVT REIL RYS 10 & 28; PAPI RYS 10 & 28; MIRL RY 10/28 - 122.9.
Beacon: white-green (lighted land airport)
Operates sunset to sunrise.

Airport Communications

CTAF: 122.9
LOUISVILLE APPROACH: 132.075
LOUISVILLE DEPARTURE: 132.075

Nearby radio navigation aids

VOR radial/distance  VOR name  Freq  Var
MYSr236/(11.4)MYSTIC VOR108.2001W
FTKr253/23.4FORT KNOX VOR/DME109.6001W
OWBr090/34.5OWENSBORO VOR/DME108.6004W
EWOr283/37.5NEW HOPE VOR/DME110.8001E

 
NDB name  Hdg/Dist  Freq  Var  ID
GODMAN248/24.439603WGOI --. --- ..

Airport Services

Fuel available: 100LL
Parking: tiedowns
Airframe service: NONE
Powerplant service: NONE
Bottled oxygen: NONE
Bulk oxygen: NONE

Runway Information

Runway 10/28

Dimensions: 4000 x 75 ft. / 1219 x 23 m
Surface: concrete, in good condition
Weight bearing capacity: 
PCN 11 /R/C/W/U
Runway edge lights: medium intensity
RUNWAY 10  RUNWAY 28
Latitude: 37-47.127623N37-47.049373N
Longitude: 086-26.888250W086-26.063687W
Elevation: 714.2 ft.732.1 ft.
Traffic pattern: leftleft
Markings: nonprecision, in good conditionnonprecision, in good condition
Visual slope indicator: 2-light PAPI on left (3.10 degrees glide path)2-light PAPI on left (3.00 degrees glide path)
Runway end identifier lights: yesyes
Touchdown point: yes, no lightsyes, no lights
Obstructions: 31 ft. trees, 1350 ft. from runway, 177 ft. left of centerline, 37:1 slope to clearnone

Airport Ownership and Management from official FAA records

Ownership: Publicly-owned
Owner: BRECKINRIDGE CO ARPT BOARD
BOX 188
HARDINSBURG, KY 40143
Phone (270) 456-6062
Manager: BRECKINRIDGE CO ARPT BOARD
799 OAK STREET
HARDINSBURG, KY 40143
Phone (270) 456-6062
AIR BOARD CHAIR - MILLER MONARCH.

Airport Operational Statistics

Aircraft based on the field: 9
Single engine airplanes: 6
Multi engine airplanes: 3
    
Aircraft operations: avg 25/week *
46% local general aviation
39% transient general aviation
15% air taxi
* for 12-month period ending 22 November 2017

Additional Remarks

FUEL AVBL 24 HRS W/CREDIT CARD
FOR CD CTC LOUISVILLE APCH AT 502-375-7499

Instrument Procedures

NOTE: All procedures below are presented as PDF files. If you need a reader for these files, you should download the free Adobe Reader.

NOT FOR NAVIGATION. Please procure official charts for flight.
FAA instrument procedures published for use from 07 November 2019 at 0901Z to 05 December 2019 at 0900Z.

 
IAPs - Instrument Approach Procedures
RNAV (GPS) RWY 10 **CHANGED**   download (182KB)
RNAV (GPS) RWY 28 **CHANGED**   download (190KB)
NOTE: Special Take-Off Minimums/Departure Procedures apply   download (279KB)

Other nearby airports with instrument procedures:

KTEL - Perry County Municipal Airport (18 nm NW)
KY8 - Hancock County Airport-Ron Lewis Field (22 nm NW)
KFTK - Godman Army Airfield (23 nm E)
M20 - Leitchfield-Grayson County Airport (25 nm S)
KEKX - Addington Field Airport (25 nm E)
 
Loc | Ops | Rwys | IFR | FBO | Links
Com | Nav | Svcs | Stats | Notes
Area around I93 (Breckinridge County Airport)
 
Road maps at: MapQuest Bing Google
 
Aerial photo
WARNING: Photo may not be current or correct
Aerial photo of I93 (Breckinridge County Airport)
looking north.

Do you have a better or more recent aerial photo of Breckinridge County Airport that you would like to share? If so, please send us your photo.

 
Sectional chart

 
Airport distance calculator
Flying to Breckinridge County Airport? Find the distance to fly.

From to I93

Sunrise and sunset
Times for 20-Nov-2019
 Local
(UTC-6)
 Zulu
(UTC)
Morning civil twilight06:0412:04
Sunrise06:3212:32
Sunset16:3122:31
Evening civil twilight16:5922:59

Current date and time
Zulu (UTC)  20-Nov-2019 12:39:47
Local (UTC-6)  20-Nov-2019 06:39:47
 
METAR
KKY8 
22nm NW 
201215Z AUTO 02004KT 7SM OVC011 05/05 A3019 RMK A01
KFTK 
23nm E 
201156Z AUTO 33003KT 10SM OVC007 05/04 A3018 RMK AO2 SLP226 70009 T00450044 10060 20045 52025 $
KEKX 
28nm E 
201215Z AUTO 36003KT 7SM OVC007 04/03 A3018 RMK AO2 T00380033
KOWB 
35nm W 
201156Z 00000KT 3SM BR BKN009 M01/M01 A3020 RMK AO2 SLP227 T10111011 10033 21017 53019
KHNB 
37nm NW 
201156Z AUTO 31004KT 6SM BR OVC009 04/03 A3019 RMK AO2 SLP226 70002 T00440033 10056 20044 51023
KSDF 
41nm NE 
201156Z 31005KT 10SM OVC009 06/03 A3018 RMK AO2 SLP221 70012 T00610033 10072 20061 53018
KFRH 
44nm N 
201215Z AUTO 00000KT 5SM OVC003 03/02 A3018 RMK AO1
TAF
KFTK 
23nm E 
192050Z 1920/2023 VRB06KT 9999 BKN005 QNH2980INS BECMG 1921/1922 VRB06KT 8000 BR BKN009 QNH2982INS BECMG 2017/2018 VRB06KT 9000 BR OVC010 QNH3020INS TX08/1920Z TN04/2013Z
NOTAMs
Click for the latest NOTAMs
NOTAMs are issued by the DoD/FAA and will open in a separate window not controlled by AirNav.

 

 
 

FBO, Fuel Providers, and Aircraft Ground Support

  
 Business Name 
 
 Contact 
 
 Services / Description 
 
Fuel Prices
 
Comments
  
Breckinridge County Airport 270-617-1111
[email]
Airport management, Aviation fuel, Aircraft parking (ramp or tiedown), Passenger terminal and lounge, Rental cars delivered, Pilots lounge / snooze room, ...

More info about Breckinridge County Airport
Shell
100LL
SS $4.59 
 Updated 07-Nov-2019
 
   2 read write
SS=Self service
Update Fuel Prices
 

Would you like to see your business listed on this page?

 If your business provides an interesting product or service to pilots, flight crews, aircraft, or users of the Breckinridge County Airport, you should consider listing it here.  To start the listing process, click on the button below
 
Add a business
 

Other Pages about Breckinridge County Airport

Update a link
 
Copyright © AirNav, LLC. All rights reserved. Privacy Policy  Contact